Time;durP1;ratioP1;P1;durP2;ratioP2;P2;SDS_P1;SDS_P2;PMS_P1;PMS_P2;Temp;Humidity;BMP_temperature;BMP_pressure;BME280_temperature;BME280_humidity;BME280_pressure;Samples;Min_cycle;Max_cycle;Signal;HPM_P1;HPM_P2
2022/03/25 00:00:25;;;;;;;65.40;44.78;;;6.50;99.90;;;;;;5048557;28;20120;-86
2022/03/25 00:02:51;;;;;;;76.85;48.65;;;6.50;99.90;;;;;;5034383;28;20038;-87
2022/03/25 00:05:16;;;;;;;74.22;48.13;;;6.50;99.90;;;;;;5017433;28;20076;-87
2022/03/25 00:07:42;;;;;;;80.13;50.00;;;6.50;99.90;;;;;;5017243;28;20041;-87
2022/03/25 00:10:11;;;;;;;72.35;47.25;;;6.40;99.90;;;;;;5033257;28;20047;-87
2022/03/25 00:12:37;;;;;;;71.03;45.92;;;6.40;99.90;;;;;;5033319;28;20045;-86
2022/03/25 00:15:02;;;;;;;72.85;47.67;;;6.40;99.90;;;;;;5032950;28;20041;-87
2022/03/25 00:17:28;;;;;;;74.47;47.17;;;6.40;99.90;;;;;;5032451;28;20666;-87
2022/03/25 00:19:53;;;;;;;69.20;47.83;;;6.40;99.90;;;;;;5031469;28;20042;-86
2022/03/25 00:22:19;;;;;;;73.47;47.70;;;6.40;99.90;;;;;;5015244;28;20568;-87
2022/03/25 00:24:45;;;;;;;77.45;50.75;;;6.30;99.90;;;;;;5030973;28;20072;-87
2022/03/25 00:27:11;;;;;;;76.20;50.25;;;6.30;99.90;;;;;;5015728;28;20041;-87
2022/03/25 00:29:37;;;;;;;71.40;48.47;;;6.30;99.90;;;;;;5031790;28;20656;-87
2022/03/25 00:32:03;;;;;;;76.63;48.60;;;6.30;99.90;;;;;;5015017;28;20506;-87
2022/03/25 00:34:29;;;;;;;85.10;51.63;;;6.30;99.90;;;;;;5031785;28;20426;-87
2022/03/25 00:36:54;;;;;;;69.25;47.30;;;6.30;99.90;;;;;;5031834;28;20045;-87
2022/03/25 00:39:20;;;;;;;70.18;46.53;;;6.30;99.90;;;;;;5031049;28;20388;-87
2022/03/25 00:41:47;;;;;;;69.82;46.75;;;6.20;99.90;;;;;;5029698;28;20671;-87
2022/03/25 00:44:13;;;;;;;69.32;44.50;;;6.20;99.90;;;;;;5031449;28;20057;-87
2022/03/25 00:46:39;;;;;;;63.40;43.28;;;6.20;99.90;;;;;;5031439;28;20056;-87
2022/03/25 00:49:05;;;;;;;58.00;40.58;;;6.10;99.90;;;;;;5031391;28;20091;-87
2022/03/25 00:51:31;;;;;;;62.47;42.78;;;6.00;99.90;;;;;;5031229;28;20034;-87
2022/03/25 00:53:57;;;;;;;62.03;42.15;;;6.00;99.90;;;;;;5031290;28;20548;-87
2022/03/25 00:56:24;;;;;;;63.60;43.65;;;5.90;99.90;;;;;;5014693;28;20042;-86
2022/03/25 00:58:50;;;;;;;64.82;44.38;;;5.90;99.90;;;;;;5031127;28;20124;-86
2022/03/25 01:01:16;;;;;;;60.85;41.58;;;5.80;99.90;;;;;;5030439;28;20418;-86
2022/03/25 01:03:42;;;;;;;52.20;36.65;;;5.80;99.90;;;;;;5030242;28;20041;-86
2022/03/25 01:06:08;;;;;;;44.90;31.65;;;5.80;99.90;;;;;;5030829;28;20372;-86
2022/03/25 01:08:35;;;;;;;44.22;30.85;;;5.70;99.90;;;;;;5030927;28;20510;-86
2022/03/25 01:11:01;;;;;;;44.42;31.35;;;5.60;99.90;;;;;;5030744;28;20087;-87
2022/03/25 01:13:32;;;;;;;45.55;33.90;;;5.60;99.90;;;;;;5031391;28;20041;-86
2022/03/25 01:15:57;;;;;;;47.90;33.92;;;5.50;99.90;;;;;;5014563;28;20037;-86
2022/03/25 01:18:23;;;;;;;52.03;35.35;;;5.40;99.90;;;;;;5013874;28;20118;-86
2022/03/25 01:20:48;;;;;;;105.05;41.78;;;5.30;99.90;;;;;;5030408;28;20080;-86
2022/03/25 01:23:14;;;;;;;68.55;41.40;;;5.20;99.90;;;;;;5030846;28;20038;-86
2022/03/25 01:25:40;;;;;;;58.00;37.85;;;5.10;99.90;;;;;;5029912;28;20034;-86
2022/03/25 01:28:06;;;;;;;51.22;37.55;;;5.00;99.90;;;;;;5013697;28;20038;-86
2022/03/25 01:30:31;;;;;;;58.78;37.90;;;4.90;99.90;;;;;;5013559;28;20072;-86
2022/03/25 01:32:57;;;;;;;61.10;37.58;;;4.90;99.90;;;;;;5030945;28;20077;-86
2022/03/25 01:35:24;;;;;;;56.13;37.28;;;4.80;99.90;;;;;;5030764;28;20103;-86
2022/03/25 01:37:50;;;;;;;62.78;39.25;;;4.80;99.90;;;;;;5014393;28;20041;-86
2022/03/25 01:40:16;;;;;;;58.00;38.55;;;4.80;99.90;;;;;;5030345;28;20537;-86
2022/03/25 01:42:41;;;;;;;66.68;39.65;;;4.80;99.90;;;;;;5029394;28;20422;-87
2022/03/25 01:45:11;;;;;;;51.10;36.10;;;4.80;99.90;;;;;;5029755;28;20037;-86
2022/03/25 01:47:37;;;;;;;49.05;35.42;;;4.70;99.90;;;;;;5029377;28;20033;-86
2022/03/25 01:50:03;;;;;;;51.40;33.97;;;4.60;99.90;;;;;;5029761;28;20045;-86
2022/03/25 01:52:30;;;;;;;49.63;34.47;;;4.60;99.90;;;;;;5030358;28;20541;-86
2022/03/25 01:55:14;;;;;;;57.90;37.40;;;4.60;99.90;;;;;;5030418;28;20037;-86
2022/03/25 01:57:39;;;;;;;50.22;35.72;;;4.50;99.90;;;;;;5030072;28;20072;-86
2022/03/25 02:00:06;;;;;;;58.17;37.03;;;4.50;99.90;;;;;;5013519;28;20073;-86
2022/03/25 02:02:32;;;;;;;58.10;36.53;;;4.50;99.90;;;;;;5030040;28;20589;-86
2022/03/25 02:04:59;;;;;;;53.75;36.90;;;4.40;99.90;;;;;;5029780;28;20041;-86
2022/03/25 02:07:25;;;;;;;58.80;36.67;;;4.40;99.90;;;;;;5013046;28;20051;-86
2022/03/25 02:09:51;;;;;;;61.35;35.70;;;4.40;99.90;;;;;;5013017;28;20041;-86
2022/03/25 02:12:17;;;;;;;83.22;38.28;;;4.40;99.90;;;;;;5029983;28;20418;-86
2022/03/25 02:14:42;;;;;;;60.03;36.15;;;4.40;99.90;;;;;;5030233;28;20673;-86
2022/03/25 02:17:08;;;;;;;84.13;37.60;;;4.40;99.90;;;;;;5030202;28;20124;-86
2022/03/25 02:19:34;;;;;;;57.05;39.33;;;4.40;99.90;;;;;;5013152;28;20037;-86
2022/03/25 02:22:00;;;;;;;58.60;38.75;;;4.40;99.90;;;;;;5029814;28;20125;-86
2022/03/25 02:24:25;;;;;;;56.00;37.08;;;4.40;99.90;;;;;;5029620;28;20052;-86
2022/03/25 02:26:51;;;;;;;54.03;37.92;;;4.40;99.90;;;;;;5029447;28;20034;-85
2022/03/25 02:29:17;;;;;;;58.63;36.13;;;4.40;99.90;;;;;;5029614;28;20065;-86
2022/03/25 02:31:43;;;;;;;59.22;36.20;;;4.40;99.90;;;;;;5013003;28;20037;-86
2022/03/25 02:34:10;;;;;;;57.83;37.55;;;4.40;99.90;;;;;;5029770;28;20120;-86
2022/03/25 02:36:37;;;;;;;72.55;38.65;;;4.30;99.90;;;;;;5029684;28;20036;-86
2022/03/25 02:39:07;;;;;;;56.40;38.47;;;4.30;99.90;;;;;;5030011;28;20038;-86
2022/03/25 02:41:33;;;;;;;56.65;38.50;;;4.30;99.90;;;;;;5013294;28;20506;-86
2022/03/25 02:44:01;;;;;;;66.43;41.60;;;4.40;99.90;;;;;;5028790;28;20040;-86
2022/03/25 02:46:27;;;;;;;63.30;39.42;;;4.40;99.90;;;;;;5028761;28;20041;-87
2022/03/25 02:48:53;;;;;;;77.22;39.15;;;4.40;99.90;;;;;;5029133;28;20063;-86
2022/03/25 02:51:19;;;;;;;59.55;37.65;;;4.40;99.90;;;;;;5029024;28;20052;-86
2022/03/25 02:53:44;;;;;;;73.35;37.92;;;4.40;99.90;;;;;;5029508;28;20099;-86
2022/03/25 02:56:10;;;;;;;70.80;37.53;;;4.40;99.90;;;;;;5013318;28;20123;-86
2022/03/25 02:58:36;;;;;;;58.50;36.45;;;4.40;99.90;;;;;;5029417;28;20077;-86
2022/03/25 03:01:02;;;;;;;59.95;35.90;;;4.40;99.90;;;;;;5029670;28;20119;-86
2022/03/25 03:03:27;;;;;;;59.08;36.13;;;4.40;99.90;;;;;;5029471;28;20135;-86
2022/03/25 03:05:53;;;;;;;64.95;36.22;;;4.40;99.90;;;;;;5013033;28;20255;-86
2022/03/25 03:08:18;;;;;;;56.00;35.40;;;4.40;99.90;;;;;;5029204;28;20044;-87
2022/03/25 03:10:44;;;;;;;53.45;35.28;;;4.30;99.90;;;;;;5012472;28;20054;-86
2022/03/25 03:13:10;;;;;;;133.13;37.60;;;4.30;99.90;;;;;;5028595;28;20046;-86
2022/03/25 03:15:36;;;;;;;69.03;36.50;;;4.30;99.90;;;;;;5029433;28;20084;-86
2022/03/25 03:18:02;;;;;;;52.10;33.97;;;4.30;99.90;;;;;;5032353;28;20053;-86
2022/03/25 03:20:28;;;;;;;52.38;32.38;;;4.30;99.90;;;;;;5032158;28;20095;-86
2022/03/25 03:22:56;;;;;;;67.65;35.10;;;4.30;99.90;;;;;;5049489;28;20099;-86
2022/03/25 03:25:22;;;;;;;70.22;37.70;;;4.30;99.90;;;;;;5049465;28;20073;-86
2022/03/25 03:27:48;;;;;;;55.53;37.97;;;4.30;99.90;;;;;;5052687;28;20076;-86
2022/03/25 03:30:14;;;;;;;60.42;36.33;;;4.30;99.90;;;;;;5052265;28;20090;-86
2022/03/25 03:32:40;;;;;;;51.58;35.20;;;4.30;99.90;;;;;;5052590;28;20445;-86
2022/03/25 03:35:07;;;;;;;51.63;34.38;;;4.30;99.90;;;;;;5052421;28;20077;-86
2022/03/25 03:37:40;;;;;;;71.90;38.10;;;4.30;99.90;;;;;;5052407;28;20103;-86
2022/03/25 03:40:07;;;;;;;67.72;37.67;;;4.30;99.90;;;;;;5052569;28;20502;-87
2022/03/25 03:42:32;;;;;;;92.32;40.33;;;4.30;99.90;;;;;;5043459;28;20044;-86
2022/03/25 03:44:58;;;;;;;99.45;41.88;;;4.30;99.90;;;;;;5016321;28;20045;-86
2022/03/25 03:47:23;;;;;;;82.78;41.60;;;4.30;99.90;;;;;;5032319;28;20120;-86
2022/03/25 03:49:49;;;;;;;75.47;37.17;;;4.30;99.90;;;;;;5031944;28;20041;-86
2022/03/25 03:52:14;;;;;;;87.15;37.10;;;4.30;99.90;;;;;;5032523;28;20079;-86
2022/03/25 03:54:40;;;;;;;83.80;42.28;;;4.30;99.90;;;;;;5015578;28;20069;-86
2022/03/25 03:57:08;;;;;;;95.65;40.92;;;4.30;99.90;;;;;;5032191;28;20045;-86
2022/03/25 03:59:34;;;;;;;74.75;41.58;;;4.40;99.90;;;;;;5032341;28;20048;-86
2022/03/25 04:02:00;;;;;;;92.15;40.78;;;4.40;99.90;;;;;;5032110;28;20073;-86
2022/03/25 04:04:25;;;;;;;79.93;38.40;;;4.40;99.90;;;;;;5032545;28;20489;-86
2022/03/25 04:06:51;;;;;;;201.45;47.28;;;4.40;99.90;;;;;;5031920;28;20033;-86
2022/03/25 04:09:17;;;;;;;75.97;39.15;;;4.40;99.90;;;;;;5033616;28;20099;-86
2022/03/25 04:11:42;;;;;;;67.18;38.45;;;4.40;99.90;;;;;;5015240;28;20033;-86
2022/03/25 04:14:08;;;;;;;77.85;38.75;;;4.40;99.90;;;;;;5015892;28;20059;-87
2022/03/25 04:16:33;;;;;;;91.93;42.83;;;4.40;99.90;;;;;;5031398;28;20033;-86
2022/03/25 04:18:59;;;;;;;126.00;45.17;;;4.40;99.90;;;;;;5032312;28;20049;-86
2022/03/25 04:21:25;;;;;;;100.10;40.90;;;4.40;99.90;;;;;;5031794;28;20037;-86
2022/03/25 04:23:50;;;;;;;86.97;41.90;;;4.40;99.90;;;;;;5031972;28;20155;-86
2022/03/25 04:26:16;;;;;;;73.05;39.55;;;4.40;99.90;;;;;;5031660;28;20646;-86
2022/03/25 04:28:41;;;;;;;173.65;44.47;;;4.40;99.90;;;;;;5015004;28;20583;-87
2022/03/25 04:31:07;;;;;;;194.60;45.15;;;4.40;99.90;;;;;;5030986;28;20037;-87
2022/03/25 04:33:34;;;;;;;124.38;41.17;;;4.40;99.90;;;;;;5032100;28;20045;-87
2022/03/25 04:36:01;;;;;;;85.10;36.25;;;4.40;99.90;;;;;;5031705;28;20045;-87
2022/03/25 04:38:27;;;;;;;115.13;38.08;;;4.40;99.90;;;;;;5030328;28;20052;-87
2022/03/25 04:40:53;;;;;;;112.95;38.42;;;4.40;99.90;;;;;;5031590;28;20124;-86
2022/03/25 04:43:18;;;;;;;73.25;37.58;;;4.40;99.90;;;;;;5030692;28;20053;-87
2022/03/25 04:45:44;;;;;;;99.05;40.20;;;4.40;99.90;;;;;;5031303;28;20061;-86
2022/03/25 04:48:11;;;;;;;116.70;40.45;;;4.40;99.90;;;;;;5021518;28;20057;-87
2022/03/25 04:50:38;;;;;;;92.90;39.33;;;4.30;99.90;;;;;;5052466;28;20094;-87
2022/03/25 04:53:04;;;;;;;133.05;40.35;;;4.30;99.90;;;;;;5043464;28;20037;-87
2022/03/25 04:55:30;;;;;;;126.32;38.78;;;4.40;99.90;;;;;;5016923;28;20038;-87
2022/03/25 04:57:56;;;;;;;115.07;38.60;;;4.30;99.90;;;;;;5032589;28;20064;-87
2022/03/25 05:00:22;;;;;;;94.63;36.70;;;4.30;99.90;;;;;;5032151;28;20099;-87
2022/03/25 05:02:47;;;;;;;88.70;39.97;;;4.30;99.90;;;;;;5031491;28;20041;-87
2022/03/25 05:05:14;;;;;;;68.97;37.20;;;4.30;99.90;;;;;;5014846;28;20384;-87
2022/03/25 05:07:44;;;;;;;73.20;36.60;;;4.30;99.90;;;;;;5025584;28;20045;-87
2022/03/25 05:10:11;;;;;;;62.28;33.22;;;4.30;99.90;;;;;;5033171;28;20056;-87
2022/03/25 05:12:38;;;;;;;71.70;36.95;;;4.20;99.90;;;;;;5033929;28;20080;-86
2022/03/25 05:15:04;;;;;;;74.95;34.72;;;4.20;99.90;;;;;;5050260;28;20052;-86
2022/03/25 05:17:30;;;;;;;94.22;36.75;;;4.20;99.90;;;;;;5050329;28;20507;-87
2022/03/25 05:19:56;;;;;;;67.03;37.20;;;4.20;99.90;;;;;;5049535;28;20128;-86
2022/03/25 05:22:22;;;;;;;74.72;34.25;;;4.20;99.90;;;;;;5049773;28;20128;-86
2022/03/25 05:24:47;;;;;;;90.28;38.00;;;4.20;99.90;;;;;;5033608;28;20060;-86
2022/03/25 05:27:13;;;;;;;114.68;39.75;;;4.20;99.90;;;;;;5049153;28;20494;-86
2022/03/25 05:29:38;;;;;;;60.17;36.05;;;4.10;99.90;;;;;;5032857;28;20040;-86
2022/03/25 05:32:04;;;;;;;58.28;34.30;;;4.10;99.90;;;;;;5033542;28;20045;-86
2022/03/25 05:34:30;;;;;;;57.45;35.13;;;4.10;99.90;;;;;;5050256;28;20044;-86
2022/03/25 05:36:56;;;;;;;56.45;36.85;;;4.10;99.90;;;;;;5050286;28;20037;-86
2022/03/25 05:39:21;;;;;;;77.60;36.20;;;4.10;99.90;;;;;;5050459;28;20033;-86
2022/03/25 05:41:47;;;;;;;76.45;33.95;;;4.10;99.90;;;;;;5045615;28;20044;-87
2022/03/25 05:44:13;;;;;;;58.28;34.75;;;4.10;99.90;;;;;;5030119;28;20148;-86
2022/03/25 05:46:38;;;;;;;59.60;32.78;;;4.10;99.90;;;;;;5029513;28;20037;-86
2022/03/25 05:49:04;;;;;;;58.05;34.03;;;4.10;99.90;;;;;;5029718;28;20037;-86
2022/03/25 05:51:31;;;;;;;77.72;33.30;;;4.10;99.90;;;;;;5029683;28;20080;-86
2022/03/25 05:53:56;;;;;;;56.55;33.67;;;4.10;99.90;;;;;;5030026;28;20037;-87
2022/03/25 05:56:22;;;;;;;55.75;32.47;;;4.10;99.90;;;;;;5030007;28;20063;-86
2022/03/25 05:58:48;;;;;;;89.70;34.88;;;4.10;99.90;;;;;;5030154;28;20049;-87
2022/03/25 06:01:13;;;;;;;81.53;34.80;;;4.10;99.90;;;;;;5029538;28;20045;-86
2022/03/25 06:03:39;;;;;;;50.45;31.63;;;4.10;99.90;;;;;;5028360;28;20076;-86
2022/03/25 06:06:06;;;;;;;51.05;34.40;;;4.10;99.90;;;;;;5028949;28;20449;-87
2022/03/25 06:08:32;;;;;;;65.78;35.83;;;4.10;99.90;;;;;;5029253;28;20037;-87
2022/03/25 06:10:59;;;;;;;52.78;32.38;;;4.10;99.90;;;;;;5012809;28;20069;-87
2022/03/25 06:13:26;;;;;;;62.90;36.28;;;4.10;99.90;;;;;;5029749;28;20056;-88
2022/03/25 06:15:52;;;;;;;47.65;31.98;;;4.20;99.90;;;;;;5029991;28;20566;-87
2022/03/25 06:18:18;;;;;;;50.05;33.15;;;4.20;99.90;;;;;;5030032;28;20045;-87
2022/03/25 06:20:44;;;;;;;48.17;33.38;;;4.30;99.90;;;;;;5029459;28;20686;-87
2022/03/25 06:23:09;;;;;;;54.72;37.17;;;4.30;99.90;;;;;;5013148;28;20040;-87
2022/03/25 06:25:35;;;;;;;61.55;34.53;;;4.30;99.90;;;;;;5029260;28;20495;-87
2022/03/25 06:28:02;;;;;;;53.78;36.00;;;4.40;99.90;;;;;;5013239;28;20454;-86
2022/03/25 06:30:34;;;;;;;48.70;35.05;;;4.40;99.90;;;;;;5013041;28;20132;-86
2022/03/25 06:33:02;;;;;;;50.45;33.55;;;4.40;99.90;;;;;;5013105;28;20067;-86
2022/03/25 06:35:27;;;;;;;59.65;35.03;;;4.40;99.90;;;;;;5029260;28;20041;-86
2022/03/25 06:37:55;;;;;;;57.28;34.35;;;4.40;99.90;;;;;;5030130;28;20512;-86
2022/03/25 06:40:22;;;;;;;45.95;32.53;;;4.50;99.90;;;;;;5012609;28;20129;-87
2022/03/25 06:42:49;;;;;;;46.17;33.55;;;4.50;99.90;;;;;;5011745;28;20046;-86
2022/03/25 06:45:16;;;;;;;46.28;32.35;;;4.50;99.90;;;;;;5043510;28;20062;-86
2022/03/25 06:47:43;;;;;;;51.38;34.42;;;4.50;99.90;;;;;;5032383;28;20040;-86
2022/03/25 06:50:10;;;;;;;47.35;34.10;;;4.60;99.90;;;;;;5026525;28;20033;-86
2022/03/25 06:52:37;;;;;;;46.22;33.83;;;4.60;99.90;;;;;;5029138;28;20048;-86
2022/03/25 06:55:03;;;;;;;49.30;32.97;;;4.60;99.90;;;;;;5012638;28;20540;-87
2022/03/25 06:57:29;;;;;;;48.42;35.67;;;4.70;99.90;;;;;;5029236;28;20048;-86
2022/03/25 06:59:55;;;;;;;45.50;33.22;;;4.70;99.90;;;;;;5029366;28;20075;-87
2022/03/25 07:02:21;;;;;;;43.80;33.00;;;4.70;99.90;;;;;;5033025;28;20084;-87
2022/03/25 07:04:47;;;;;;;47.30;34.45;;;4.80;99.90;;;;;;5032432;28;20041;-87
2022/03/25 07:07:18;;;;;;;47.60;33.70;;;4.90;99.90;;;;;;5033274;28;20040;-87
2022/03/25 07:09:43;;;;;;;42.10;29.50;;;4.90;99.90;;;;;;5016569;28;20040;-87
2022/03/25 07:12:10;;;;;;;47.88;33.72;;;5.00;99.90;;;;;;5033234;28;20041;-87
2022/03/25 07:14:35;;;;;;;46.40;33.00;;;5.10;99.90;;;;;;5032971;28;20487;-87
2022/03/25 07:17:01;;;;;;;48.15;34.92;;;5.10;99.90;;;;;;5016322;28;20128;-87
2022/03/25 07:19:26;;;;;;;47.03;33.47;;;5.20;99.90;;;;;;5016010;28;20049;-87
2022/03/25 07:21:52;;;;;;;49.55;34.58;;;5.30;99.90;;;;;;5032827;28;20128;-86
2022/03/25 07:24:18;;;;;;;45.78;34.20;;;5.30;99.90;;;;;;5032085;28;20048;-87
2022/03/25 07:26:44;;;;;;;47.83;36.47;;;5.40;99.90;;;;;;5032727;28;20423;-87
2022/03/25 07:29:11;;;;;;;51.25;36.30;;;5.50;99.90;;;;;;5033079;28;20463;-86
2022/03/25 07:31:37;;;;;;;47.72;32.72;;;5.60;99.90;;;;;;5032651;28;20116;-87
2022/03/25 07:34:03;;;;;;;53.75;36.88;;;5.80;99.90;;;;;;5032675;28;20572;-87
2022/03/25 07:36:28;;;;;;;54.38;37.63;;;5.90;99.90;;;;;;5032378;28;20045;-86
2022/03/25 07:38:54;;;;;;;56.90;39.00;;;6.00;99.90;;;;;;5032722;28;20040;-87
2022/03/25 07:41:20;;;;;;;53.22;36.13;;;6.10;99.90;;;;;;5032554;28;20049;-87
2022/03/25 07:43:46;;;;;;;57.72;39.47;;;6.20;99.90;;;;;;5030431;28;20041;-87
2022/03/25 07:46:11;;;;;;;57.13;38.78;;;6.30;99.90;;;;;;5032123;28;20519;-87
2022/03/25 07:48:37;;;;;;;56.00;38.47;;;6.40;99.90;;;;;;5032655;28;20076;-87
2022/03/25 07:51:03;;;;;;;57.28;39.63;;;6.50;99.90;;;;;;5031409;28;20038;-87
2022/03/25 07:53:29;;;;;;;54.13;36.97;;;6.60;99.90;;;;;;5032304;28;20050;-87
2022/03/25 07:55:55;;;;;;;57.35;40.58;;;6.70;99.90;;;;;;5031851;28;20107;-86
2022/03/25 07:58:22;;;;;;;53.80;39.78;;;6.80;99.90;;;;;;5016024;28;20045;-87
2022/03/25 08:00:49;;;;;;;57.97;40.85;;;6.90;99.90;;;;;;5031970;28;20056;-87
2022/03/25 08:03:16;;;;;;;53.42;40.25;;;7.00;99.90;;;;;;5032460;28;20132;-87
2022/03/25 08:05:43;;;;;;;57.92;41.10;;;7.10;99.90;;;;;;5031886;28;20033;-88
2022/03/25 08:08:09;;;;;;;56.42;40.75;;;7.30;99.90;;;;;;5031755;28;20144;-88
2022/03/25 08:10:36;;;;;;;61.60;41.53;;;7.40;99.90;;;;;;5031726;28;20116;-87
2022/03/25 08:13:02;;;;;;;56.53;39.97;;;7.50;99.90;;;;;;5015074;28;20045;-87
2022/03/25 08:15:29;;;;;;;57.45;42.42;;;7.60;99.90;;;;;;5015296;28;20033;-87
2022/03/25 08:18:06;;;;;;;57.08;40.42;;;7.70;99.90;;;;;;5032338;28;20391;-87
2022/03/25 08:20:36;;;;;;;58.70;40.78;;;7.80;99.90;;;;;;5031532;28;20045;-87
2022/03/25 08:23:04;;;;;;;56.22;42.03;;;8.00;99.90;;;;;;5032103;28;20041;-88
2022/03/25 08:28:15;;;;;;;58.30;41.83;;;8.20;99.90;;;;;;5030881;28;20037;-87
2022/03/25 08:30:44;;;;;;;56.70;39.78;;;8.40;99.90;;;;;;5030362;28;20041;-87
2022/03/25 08:33:10;;;;;;;57.00;40.67;;;8.50;99.90;;;;;;5015343;28;20045;-87
2022/03/25 08:35:38;;;;;;;54.08;40.92;;;8.60;99.90;;;;;;5031282;28;20546;-87
2022/03/25 08:38:04;;;;;;;53.67;40.45;;;8.80;99.90;;;;;;5031302;28;20499;-87
2022/03/25 08:40:32;;;;;;;56.67;41.90;;;8.90;99.90;;;;;;5014728;28;20164;-87
2022/03/25 08:42:58;;;;;;;57.53;41.67;;;9.00;99.90;;;;;;5030242;28;20045;-88
2022/03/25 08:45:24;;;;;;;58.13;42.20;;;9.20;99.90;;;;;;5031233;28;20041;-87
2022/03/25 08:47:50;;;;;;;56.30;40.10;;;9.30;99.90;;;;;;5031355;28;20084;-88
2022/03/25 08:50:18;;;;;;;56.65;39.13;;;9.40;99.90;;;;;;5030967;28;20045;-88
2022/03/25 08:52:45;;;;;;;50.28;37.65;;;9.60;99.90;;;;;;5031647;28;20825;-87
2022/03/25 08:55:11;;;;;;;49.50;37.42;;;9.70;99.90;;;;;;5030759;28;20045;-88
2022/03/25 08:57:38;;;;;;;50.55;36.72;;;9.90;99.90;;;;;;5030845;28;20091;-87
2022/03/25 09:00:07;;;;;;;50.42;37.80;;;10.00;99.90;;;;;;5031233;28;20045;-87
2022/03/25 09:02:32;;;;;;;48.28;36.47;;;10.10;99.90;;;;;;5014651;28;20664;-87
2022/03/25 09:04:58;;;;;;;50.78;38.08;;;10.30;99.90;;;;;;5014694;28;20036;-88
2022/03/25 09:07:23;;;;;;;46.45;35.60;;;10.40;99.90;;;;;;5031503;28;20075;-88
2022/03/25 09:09:49;;;;;;;46.55;35.80;;;10.50;99.90;;;;;;5030816;28;20486;-87
2022/03/25 09:12:15;;;;;;;48.65;37.38;;;10.60;99.90;;;;;;5013232;28;20037;-87
2022/03/25 09:14:40;;;;;;;48.58;36.90;;;10.70;99.90;;;;;;5029704;28;20741;-87
2022/03/25 09:17:06;;;;;;;50.72;37.60;;;10.90;99.90;;;;;;5011998;28;20156;-87
2022/03/25 09:19:32;;;;;;;46.17;38.35;;;11.00;99.90;;;;;;5013400;28;20184;-88
2022/03/25 09:21:58;;;;;;;48.08;37.55;;;11.20;99.90;;;;;;5013949;28;20495;-88
2022/03/25 09:24:23;;;;;;;49.58;38.25;;;11.30;99.90;;;;;;5029789;28;20045;-88
2022/03/25 09:26:49;;;;;;;49.80;39.38;;;11.40;99.90;;;;;;5030138;28;20601;-87
2022/03/25 09:29:15;;;;;;;50.03;39.13;;;11.60;99.90;;;;;;5030317;28;20432;-87
2022/03/25 09:31:42;;;;;;;46.03;37.58;;;11.70;99.90;;;;;;5013904;28;20037;-88
2022/03/25 09:36:53;;;;;;;49.38;38.63;;;11.90;99.90;;;;;;5030558;28;20045;-87
2022/03/25 09:39:19;;;;;;;47.33;41.10;;;12.10;99.90;;;;;;5012955;28;20388;-88
2022/03/25 09:41:46;;;;;;;49.17;40.88;;;12.30;99.90;;;;;;5012133;28;20037;-87
2022/03/25 09:44:14;;;;;;;49.95;41.60;;;12.40;99.90;;;;;;5033618;28;20041;-87
2022/03/25 09:46:42;;;;;;;44.70;39.28;;;12.60;99.90;;;;;;5049599;28;20045;-87
2022/03/25 09:49:08;;;;;;;47.25;41.33;;;12.80;99.90;;;;;;5050080;28;20055;-88
2022/03/25 09:51:35;;;;;;;49.97;41.15;;;13.00;99.90;;;;;;5049390;28;20051;-88
2022/03/25 09:54:01;;;;;;;46.33;41.20;;;13.20;99.80;;;;;;5049959;28;20072;-88
2022/03/25 09:56:27;;;;;;;47.60;39.95;;;13.40;99.00;;;;;;5050471;28;20068;-88
2022/03/25 09:58:53;;;;;;;45.38;39.92;;;13.50;97.90;;;;;;5049211;28;20730;-88
2022/03/25 10:01:18;;;;;;;46.05;41.10;;;13.70;97.20;;;;;;5048230;28;20037;-88
2022/03/25 10:03:44;;;;;;;44.53;39.30;;;13.80;96.90;;;;;;5049370;28;20043;-88
2022/03/25 10:06:11;;;;;;;45.03;39.30;;;14.00;96.60;;;;;;5049973;28;20510;-89
2022/03/25 10:08:38;;;;;;;47.95;39.20;;;14.20;95.40;;;;;;5032570;28;20119;-88
2022/03/25 10:11:27;;;;;;;45.33;39.25;;;14.40;94.30;;;;;;5051097;28;20021;-87
2022/03/25 10:14:15;;;;;;;45.53;40.70;;;14.60;92.80;;;;;;5013160;28;20077;-87
2022/03/25 10:16:45;;;;;;;45.63;38.55;;;14.70;93.50;;;;;;5028961;28;20512;-87
2022/03/25 10:19:12;;;;;;;45.30;39.92;;;14.90;93.70;;;;;;5014897;28;20038;-87
2022/03/25 10:22:01;;;;;;;45.40;40.70;;;15.00;93.00;;;;;;5030649;28;20044;-87
2022/03/25 10:24:48;;;;;;;45.58;39.20;;;15.20;92.30;;;;;;5014563;28;20041;-87
2022/03/25 10:27:25;;;;;;;47.33;42.10;;;15.40;90.60;;;;;;5029706;28;20045;-88
2022/03/25 10:29:54;;;;;;;49.08;42.58;;;15.60;88.70;;;;;;5013152;28;20060;-88
2022/03/25 10:32:25;;;;;;;49.58;42.15;;;15.70;86.00;;;;;;5029497;28;20546;-88
2022/03/25 10:35:09;;;;;;;48.60;43.05;;;15.80;82.40;;;;;;5030821;28;20088;-87
2022/03/25 10:37:53;;;;;;;48.15;43.03;;;16.00;78.10;;;;;;5033604;28;20046;-88
2022/03/25 10:40:19;;;;;;;44.88;40.08;;;16.10;79.70;;;;;;5032727;28;20510;-88
2022/03/25 10:43:05;;;;;;;42.88;38.35;;;16.20;78.90;;;;;;5032346;28;20064;-88
2022/03/25 10:45:31;;;;;;;43.97;39.17;;;16.40;80.40;;;;;;5033178;28;20045;-87
2022/03/25 10:48:20;;;;;;;45.17;40.33;;;16.50;78.80;;;;;;5033791;28;20029;-88
2022/03/25 10:50:58;;;;;;;42.67;37.95;;;16.70;77.90;;;;;;5033278;28;20048;-88
2022/03/25 10:53:26;;;;;;;44.13;39.45;;;16.70;74.30;;;;;;5016943;28;20048;-88
2022/03/25 10:56:06;;;;;;;42.22;37.70;;;16.80;74.30;;;;;;5016855;28;20132;-87
2022/03/25 10:58:33;;;;;;;44.85;37.55;;;17.00;74.00;;;;;;5032573;28;20046;-88
2022/03/25 11:00:59;;;;;;;42.33;37.85;;;17.10;73.30;;;;;;5032421;28;20065;-88
2022/03/25 11:03:25;;;;;;;43.13;36.47;;;17.30;72.30;;;;;;5032754;28;20045;-88
2022/03/25 11:05:52;;;;;;;43.83;38.83;;;17.40;72.90;;;;;;5015466;28;20117;-88
2022/03/25 11:08:18;;;;;;;40.75;36.35;;;17.70;72.40;;;;;;5016523;28;20103;-89
2022/03/25 11:10:44;;;;;;;45.38;37.38;;;17.80;70.70;;;;;;5033071;28;20041;-88
2022/03/25 11:13:09;;;;;;;44.20;36.25;;;17.90;69.60;;;;;;5037297;28;20442;-88
2022/03/25 11:15:36;;;;;;;41.50;34.35;;;18.00;69.50;;;;;;5046275;28;20049;-89
2022/03/25 11:18:02;;;;;;;42.40;33.67;;;18.20;69.60;;;;;;5035510;28;20048;-88
2022/03/25 11:20:28;;;;;;;37.88;33.83;;;18.50;68.80;;;;;;5033591;28;20124;-88
2022/03/25 11:23:16;;;;;;;38.05;33.90;;;18.70;68.20;;;;;;5032232;28;20132;-88
2022/03/25 11:25:51;;;;;;;39.05;32.42;;;18.90;67.40;;;;;;5032689;28;20410;-88
2022/03/25 11:28:26;;;;;;;39.90;33.25;;;19.10;65.60;;;;;;5032939;28;20041;-88
2022/03/25 11:31:00;;;;;;;35.85;31.95;;;19.20;63.80;;;;;;5032621;28;20060;-88
2022/03/25 11:33:26;;;;;;;36.42;32.30;;;19.30;62.70;;;;;;5016584;28;20118;-88
2022/03/25 11:36:13;;;;;;;35.75;31.83;;;19.40;63.10;;;;;;5033288;28;20037;-88
2022/03/25 11:38:38;;;;;;;39.67;32.33;;;19.60;63.20;;;;;;5032324;28;20167;-88
2022/03/25 11:41:20;;;;;;;37.65;30.00;;;19.80;61.10;;;;;;5032121;28;20139;-88
2022/03/25 11:44:15;;;;;;;36.87;31.93;;;19.90;60.50;;;;;;5031572;28;20067;-88
2022/03/25 11:46:59;;;;;;;39.20;32.10;;;20.10;59.60;;;;;;5031888;28;20402;-88
2022/03/25 11:49:29;;;;;;;38.20;31.38;;;20.20;59.20;;;;;;5031617;28;20083;-88
2022/03/25 11:51:55;;;;;;;35.90;31.70;;;20.30;59.30;;;;;;5032436;28;20041;-89
2022/03/25 11:54:41;;;;;;;38.97;31.50;;;20.50;58.40;;;;;;5032675;28;20033;-89
2022/03/25 11:57:21;;;;;;;35.47;30.75;;;20.60;57.50;;;;;;5032746;28;20050;-88
2022/03/25 12:00:04;;;;;;;36.53;29.40;;;20.70;56.20;;;;;;5015279;28;20057;-88
2022/03/25 12:02:38;;;;;;;33.28;28.38;;;20.80;56.70;;;;;;5031588;28;20127;-89
2022/03/25 12:05:25;;;;;;;35.80;30.17;;;21.10;56.00;;;;;;5031808;28;20029;-89
2022/03/25 12:08:22;;;;;;;36.53;29.45;;;21.30;54.30;;;;;;5031929;28;20037;-89
2022/03/25 12:10:50;;;;;;;33.72;28.70;;;21.50;54.20;;;;;;5032127;28;20029;-88
2022/03/25 12:13:17;;;;;;;37.38;30.25;;;21.60;52.70;;;;;;5015514;28;20041;-88
2022/03/25 12:15:53;;;;;;;35.00;27.58;;;21.60;51.90;;;;;;5032038;28;20037;-88
2022/03/25 12:18:41;;;;;;;36.35;28.70;;;21.80;52.30;;;;;;5031938;28;20046;-87
2022/03/25 12:21:38;;;;;;;36.17;28.17;;;22.00;52.10;;;;;;5030651;28;20088;-88
2022/03/25 12:24:04;;;;;;;30.00;25.30;;;22.20;51.60;;;;;;5006397;28;20050;-88
2022/03/25 12:26:37;;;;;;;33.13;26.92;;;22.30;51.40;;;;;;4995700;28;20045;-88
2022/03/25 12:29:07;;;;;;;31.67;24.77;;;22.50;50.20;;;;;;5012304;28;20700;-88
2022/03/25 12:31:33;;;;;;;32.72;25.15;;;22.60;50.10;;;;;;5011661;28;20041;-88
2022/03/25 12:34:00;;;;;;;32.80;25.55;;;22.80;49.50;;;;;;5012259;28;20061;-88
2022/03/25 12:36:36;;;;;;;31.90;24.52;;;22.90;49.20;;;;;;5011810;28;20042;-87
2022/03/25 12:39:02;;;;;;;33.67;26.42;;;23.10;48.70;;;;;;4995319;28;20128;-87
2022/03/25 12:41:30;;;;;;;31.95;25.38;;;23.30;48.00;;;;;;5011655;28;20132;-88